createdAt,value
2022-10-13T00:02:17.848Z,1.60
2022-10-13T00:05:20.737Z,1.85
2022-10-13T00:08:24.998Z,1.70
2022-10-13T00:11:29.609Z,1.60
2022-10-13T00:14:32.873Z,1.40
2022-10-13T00:17:36.586Z,1.60
2022-10-13T00:20:44.763Z,1.63
2022-10-13T00:23:47.012Z,1.58
2022-10-13T00:26:54.777Z,1.52
2022-10-13T00:29:57.077Z,1.90
2022-10-13T00:32:59.266Z,1.60
2022-10-13T00:36:01.585Z,1.83
2022-10-13T00:39:04.267Z,1.58
2022-10-13T00:42:08.207Z,1.85
2022-10-13T00:45:24.234Z,1.65
2022-10-13T00:48:30.859Z,1.40
2022-10-13T00:51:38.295Z,1.63
2022-10-13T00:54:41.791Z,1.48
2022-10-13T00:57:48.009Z,1.70
2022-10-13T01:00:52.635Z,1.42
2022-10-13T01:03:54.834Z,1.50
2022-10-13T01:06:56.924Z,1.30
2022-10-13T01:10:01.264Z,1.45
2022-10-13T01:13:23.880Z,1.40
2022-10-13T01:16:44.369Z,1.70
2022-10-13T01:20:18.146Z,1.70
2022-10-13T01:23:29.475Z,1.73
2022-10-13T01:30:02.670Z,1.40
2022-10-13T01:33:08.104Z,1.60
2022-10-13T01:36:13.454Z,1.27
2022-10-13T01:39:40.443Z,1.60
2022-10-13T01:43:02.176Z,1.27
2022-10-13T01:46:16.824Z,1.42
2022-10-13T01:49:22.451Z,1.70
2022-10-13T01:52:28.651Z,1.65
2022-10-13T01:55:32.047Z,1.40
2022-10-13T01:58:36.946Z,1.88
2022-10-13T02:01:54.766Z,1.55
2022-10-13T02:05:10.466Z,1.58
2022-10-13T02:08:38.202Z,1.73
2022-10-13T02:11:47.134Z,1.60
2022-10-13T02:14:50.987Z,2.10
2022-10-13T02:17:53.868Z,1.55
2022-10-13T02:20:56.960Z,1.23
2022-10-13T02:23:59.586Z,1.80
2022-10-13T02:27:03.399Z,1.73
2022-10-13T02:30:06.567Z,1.73
2022-10-13T02:33:09.864Z,1.38
2022-10-13T02:36:12.958Z,1.65
2022-10-13T02:39:16.110Z,2.00
2022-10-13T02:42:19.161Z,1.70
2022-10-13T02:45:21.880Z,2.03
2022-10-13T02:48:25.063Z,1.50
2022-10-13T02:51:27.676Z,1.77
2022-10-13T02:54:30.697Z,1.50
2022-10-13T02:57:33.265Z,1.52
2022-10-13T03:00:35.349Z,1.58
2022-10-13T03:03:38.827Z,1.35
2022-10-13T03:06:40.712Z,1.60
2022-10-13T03:09:43.231Z,1.65
2022-10-13T03:12:45.209Z,1.58
2022-10-13T03:15:47.881Z,1.60
2022-10-13T03:18:49.744Z,1.70
2022-10-13T03:21:52.292Z,1.20
2022-10-13T03:24:55.644Z,1.70
2022-10-13T03:27:58.150Z,1.60
2022-10-13T03:31:11.883Z,1.77
2022-10-13T03:34:17.562Z,1.73
2022-10-13T03:37:20.027Z,1.55
2022-10-13T03:40:22.853Z,1.58
2022-10-13T03:43:25.535Z,1.58
2022-10-13T03:46:32.592Z,1.65
2022-10-13T03:49:34.657Z,1.65
2022-10-13T03:52:37.714Z,1.58
2022-10-13T03:55:39.740Z,1.52
2022-10-13T03:58:42.925Z,1.65
2022-10-13T04:01:45.083Z,1.60
2022-10-13T04:04:47.633Z,1.60
2022-10-13T04:07:49.928Z,1.83
2022-10-13T04:11:06.591Z,1.60
2022-10-13T04:14:09.175Z,1.65
2022-10-13T04:17:11.861Z,1.50
2022-10-13T04:20:14.123Z,1.42
2022-10-13T04:23:16.585Z,1.73
2022-10-13T04:26:25.201Z,1.60
2022-10-13T04:29:27.550Z,2.30
2022-10-13T04:32:29.931Z,1.80
2022-10-13T04:35:32.995Z,1.73
2022-10-13T04:38:35.303Z,1.75
2022-10-13T04:41:37.484Z,1.63
2022-10-13T04:44:40.226Z,1.65
2022-10-13T04:47:43.725Z,1.83
2022-10-13T04:50:45.710Z,1.65
2022-10-13T04:53:48.427Z,1.52
2022-10-13T04:56:52.746Z,1.50
2022-10-13T04:59:55.908Z,1.60
2022-10-13T05:02:58.068Z,1.60
2022-10-13T05:06:01.388Z,1.50
2022-10-13T05:09:04.279Z,1.80
2022-10-13T05:12:07.794Z,1.75
2022-10-13T05:15:10.229Z,1.60
2022-10-13T05:18:12.959Z,1.63
2022-10-13T05:21:20.307Z,1.77
2022-10-13T05:24:31.224Z,1.75
2022-10-13T05:27:33.521Z,1.90
2022-10-13T05:30:39.532Z,1.60
2022-10-13T05:33:42.812Z,1.77
2022-10-13T05:36:45.575Z,1.90
2022-10-13T05:39:48.943Z,1.80
2022-10-13T05:42:51.628Z,1.67
2022-10-13T05:45:54.720Z,1.45
2022-10-13T05:48:57.509Z,1.80
2022-10-13T05:52:04.337Z,1.20
2022-10-13T05:55:12.188Z,1.60
2022-10-13T05:58:14.971Z,1.30
2022-10-13T06:01:22.020Z,2.00
2022-10-13T06:04:35.802Z,1.40
2022-10-13T06:07:38.519Z,1.85
2022-10-13T06:10:43.010Z,1.70
2022-10-13T06:13:45.386Z,1.70
2022-10-13T06:16:47.399Z,1.77
2022-10-13T06:19:50.028Z,1.60
2022-10-13T06:22:52.126Z,2.00
2022-10-13T06:25:54.681Z,1.42
2022-10-13T06:28:59.746Z,1.55
2022-10-13T06:32:03.629Z,2.10
2022-10-13T06:35:06.428Z,1.42
2022-10-13T06:38:09.500Z,1.60
2022-10-13T06:41:14.515Z,1.80
2022-10-13T06:44:17.261Z,1.60
2022-10-13T06:47:19.336Z,1.30
2022-10-13T06:50:22.657Z,1.58
2022-10-13T06:53:24.680Z,1.50
2022-10-13T06:56:30.290Z,2.10
2022-10-13T06:59:34.148Z,1.70
2022-10-13T07:02:36.510Z,1.55
2022-10-13T07:05:38.514Z,1.50
2022-10-13T07:08:41.158Z,1.80
2022-10-13T07:11:47.161Z,1.40
2022-10-13T07:14:49.874Z,1.33
2022-10-13T07:17:54.233Z,1.75
2022-10-13T07:20:58.757Z,1.70
2022-10-13T07:24:02.832Z,1.58
2022-10-13T07:27:07.896Z,1.80
2022-10-13T07:30:11.433Z,1.73
2022-10-13T07:33:14.220Z,1.63
2022-10-13T07:36:16.163Z,1.50
2022-10-13T07:39:18.416Z,1.70
2022-10-13T07:42:20.479Z,1.30
2022-10-13T07:45:23.205Z,1.70
2022-10-13T07:48:26.150Z,1.40
2022-10-13T07:51:30.827Z,1.50
2022-10-13T07:54:33.659Z,1.40
2022-10-13T07:57:36.129Z,1.63
2022-10-13T08:00:38.024Z,1.45
2022-10-13T08:03:44.210Z,1.60
2022-10-13T08:06:51.662Z,1.27
2022-10-13T08:09:54.197Z,1.60
2022-10-13T08:12:56.411Z,1.67
2022-10-13T08:16:01.571Z,1.58
2022-10-13T08:19:03.862Z,1.73
2022-10-13T08:22:09.647Z,1.42
2022-10-13T08:25:12.991Z,1.40
2022-10-13T08:28:21.885Z,1.63
2022-10-13T08:31:24.341Z,1.67
2022-10-13T08:37:30.361Z,1.60
2022-10-13T08:40:33.448Z,1.60
2022-10-13T08:43:49.077Z,1.73
2022-10-13T08:47:13.208Z,1.33
2022-10-13T08:50:20.104Z,1.58
2022-10-13T08:53:29.060Z,1.50
2022-10-13T08:56:34.986Z,1.30
2022-10-13T08:59:37.421Z,1.40
2022-10-13T09:02:41.648Z,1.60
2022-10-13T09:05:56.013Z,1.42
2022-10-13T09:08:59.788Z,1.50
2022-10-13T09:12:04.008Z,1.70
2022-10-13T09:15:10.300Z,1.50
2022-10-13T09:18:14.483Z,1.30
2022-10-13T09:21:21.842Z,1.65
2022-10-13T09:24:26.588Z,1.58
2022-10-13T09:27:28.910Z,2.05
2022-10-13T09:30:34.202Z,1.50
2022-10-13T09:33:37.698Z,1.60
2022-10-13T09:36:54.786Z,1.70
2022-10-13T09:40:19.700Z,1.33
2022-10-13T09:43:48.223Z,1.55
2022-10-13T09:46:59.580Z,1.63
2022-10-13T09:50:23.509Z,1.35
2022-10-13T09:53:34.285Z,1.27
2022-10-13T09:56:42.690Z,1.40
2022-10-13T09:59:53.415Z,1.50
2022-10-13T10:03:23.698Z,1.67
2022-10-13T10:06:27.996Z,1.50
2022-10-13T10:09:41.838Z,1.60
2022-10-13T10:12:45.708Z,2.03
2022-10-13T10:16:19.910Z,1.27
2022-10-13T10:19:43.854Z,1.50
2022-10-13T10:23:01.430Z,1.33
2022-10-13T10:26:22.100Z,1.70
2022-10-13T10:29:58.603Z,1.73
2022-10-13T10:33:13.294Z,1.40
2022-10-13T10:36:26.328Z,1.55
2022-10-13T10:39:37.117Z,1.70
2022-10-13T10:43:18.256Z,1.35
2022-10-13T10:46:30.946Z,1.45
2022-10-13T10:49:40.400Z,1.60
2022-10-13T10:52:48.948Z,1.25
2022-10-13T10:55:55.815Z,1.50
2022-10-13T10:59:27.251Z,1.80
2022-10-13T11:02:54.711Z,1.70
2022-10-13T11:06:05.201Z,1.55
2022-10-13T11:09:11.675Z,1.38
2022-10-13T11:15:31.328Z,1.60
2022-10-13T11:18:55.323Z,1.52
2022-10-13T11:22:11.879Z,1.67
2022-10-13T11:25:40.412Z,1.77
2022-10-13T11:28:43.487Z,1.63
2022-10-13T11:31:53.714Z,1.90
2022-10-13T11:35:10.666Z,1.85
2022-10-13T11:38:32.448Z,1.98
2022-10-13T11:41:55.132Z,1.98
2022-10-13T11:45:01.745Z,2.03
2022-10-13T11:48:25.707Z,2.15
2022-10-13T11:51:49.589Z,2.13
2022-10-13T11:55:17.430Z,2.17
2022-10-13T11:58:22.161Z,1.67
2022-10-13T12:01:24.919Z,2.25
2022-10-13T12:04:28.978Z,2.50
2022-10-13T12:07:39.916Z,2.45
2022-10-13T12:10:42.429Z,2.63
2022-10-13T12:13:47.268Z,2.33
2022-10-13T12:20:18.334Z,2.22
2022-10-13T12:23:20.803Z,1.83
2022-10-13T12:26:25.700Z,1.95
2022-10-13T12:29:33.470Z,2.53
2022-10-13T12:32:50.598Z,2.50
2022-10-13T12:35:52.888Z,2.50
2022-10-13T12:39:02.650Z,2.70
2022-10-13T12:42:08.079Z,2.25
2022-10-13T12:45:26.627Z,2.70
2022-10-13T12:48:38.579Z,2.88
2022-10-13T12:51:43.753Z,2.22
2022-10-13T12:54:57.420Z,2.45
2022-10-13T12:57:59.809Z,2.60
2022-10-13T13:01:14.531Z,3.15
2022-10-13T13:04:23.192Z,2.20
2022-10-13T13:07:35.488Z,2.50
2022-10-13T13:10:37.675Z,2.92
2022-10-13T13:13:39.623Z,2.45
2022-10-13T13:16:42.121Z,2.63
2022-10-13T13:19:50.050Z,2.20
2022-10-13T13:22:53.657Z,2.40
2022-10-13T13:26:18.410Z,3.05
2022-10-13T13:29:20.761Z,2.50
2022-10-13T13:32:25.081Z,1.90
2022-10-13T13:35:28.431Z,2.97
2022-10-13T13:38:31.508Z,2.38
2022-10-13T13:41:34.155Z,2.58
2022-10-13T13:44:36.277Z,2.72
2022-10-13T13:47:38.892Z,3.50
2022-10-13T13:50:41.209Z,2.47
2022-10-13T13:53:43.597Z,2.97
2022-10-13T13:56:47.757Z,2.40
2022-10-13T13:59:51.444Z,2.20
2022-10-13T14:02:54.032Z,2.67
2022-10-13T14:05:56.545Z,2.63
2022-10-13T14:08:59.317Z,2.50
2022-10-13T14:12:02.360Z,2.42
2022-10-13T14:15:05.971Z,2.70
2022-10-13T14:18:08.284Z,2.63
2022-10-13T14:21:11.087Z,2.50
2022-10-13T14:24:13.857Z,2.13
2022-10-13T14:27:16.144Z,2.10
2022-10-13T14:30:18.842Z,2.05
2022-10-13T14:33:20.891Z,2.13
2022-10-13T14:36:23.508Z,2.25
2022-10-13T14:39:25.633Z,2.28
2022-10-13T14:42:28.115Z,2.40
2022-10-13T14:45:31.031Z,1.98
2022-10-13T14:48:34.931Z,2.22
2022-10-13T14:51:37.607Z,2.35
2022-10-13T14:54:44.539Z,2.55
2022-10-13T14:57:48.451Z,1.90
2022-10-13T15:00:53.801Z,2.40
2022-10-13T15:03:56.114Z,2.00
2022-10-13T15:07:00.301Z,2.15
2022-10-13T15:10:06.653Z,0.90
2022-10-13T15:13:09.551Z,0.93
2022-10-13T15:16:20.322Z,0.80
2022-10-13T15:19:22.995Z,1.05
2022-10-13T15:22:27.007Z,1.00
2022-10-13T15:25:29.463Z,1.60
2022-10-13T15:28:37.732Z,1.85
2022-10-13T15:31:42.992Z,2.17
2022-10-13T15:34:45.739Z,1.50
2022-10-13T15:37:48.187Z,1.85
2022-10-13T15:40:50.775Z,2.03
2022-10-13T15:43:53.240Z,1.70
2022-10-13T15:47:07.965Z,2.20
2022-10-13T15:50:11.079Z,2.13
2022-10-13T15:53:13.971Z,1.80
2022-10-13T15:56:17.602Z,1.60
2022-10-13T15:59:19.794Z,1.58
2022-10-13T16:02:24.401Z,1.85
2022-10-13T16:05:27.082Z,2.00
2022-10-13T16:08:31.059Z,1.77
2022-10-13T16:11:35.113Z,1.90
2022-10-13T16:14:37.915Z,1.60
2022-10-13T16:17:41.138Z,1.70
2022-10-13T16:20:45.538Z,1.80
2022-10-13T16:23:48.470Z,2.20
2022-10-13T16:26:50.817Z,1.88
2022-10-13T16:29:54.160Z,1.90
2022-10-13T16:32:58.304Z,1.45
2022-10-13T16:36:10.647Z,1.80
2022-10-13T16:39:14.056Z,1.67
2022-10-13T16:42:16.725Z,1.52
2022-10-13T16:45:35.462Z,1.73
2022-10-13T16:48:44.319Z,1.42
2022-10-13T16:51:46.696Z,1.75
2022-10-13T16:54:48.800Z,1.63
2022-10-13T16:57:51.812Z,1.60
2022-10-13T17:00:53.773Z,1.40
2022-10-13T17:03:57.776Z,1.27
2022-10-13T17:07:00.245Z,1.70
2022-10-13T17:10:03.776Z,1.55
2022-10-13T17:13:06.591Z,1.20
2022-10-13T17:16:09.070Z,1.45
2022-10-13T17:19:13.987Z,1.20
2022-10-13T17:22:16.452Z,1.30
2022-10-13T17:25:18.595Z,1.40
2022-10-13T17:28:21.083Z,1.40
2022-10-13T17:31:23.862Z,1.15
2022-10-13T17:34:26.412Z,1.08
2022-10-13T17:37:28.559Z,1.20
2022-10-13T17:40:34.860Z,1.48
2022-10-13T17:43:39.168Z,1.75
2022-10-13T17:46:41.973Z,1.13
2022-10-13T17:49:44.644Z,1.40
2022-10-13T17:52:49.907Z,1.27
2022-10-13T17:55:54.025Z,1.25
2022-10-13T17:59:00.228Z,1.20
2022-10-13T18:02:02.451Z,1.48
2022-10-13T18:05:05.430Z,1.10
2022-10-13T18:08:07.966Z,1.40
2022-10-13T18:11:15.227Z,2.08
2022-10-13T18:14:18.404Z,1.15
2022-10-13T18:17:20.965Z,1.00
2022-10-13T18:20:23.683Z,1.10
2022-10-13T18:23:30.650Z,1.10
2022-10-13T18:26:38.138Z,0.90
2022-10-13T18:29:42.650Z,1.00
2022-10-13T18:32:46.248Z,1.33
2022-10-13T18:35:50.147Z,1.10
2022-10-13T18:38:53.958Z,1.20
2022-10-13T18:41:58.095Z,1.30
2022-10-13T18:45:09.702Z,1.10
2022-10-13T18:48:12.776Z,1.10
2022-10-13T18:51:17.376Z,0.90
2022-10-13T18:54:20.078Z,1.10
2022-10-13T18:57:22.738Z,0.85
2022-10-13T19:00:25.679Z,1.00
2022-10-13T19:03:28.618Z,0.90
2022-10-13T19:06:33.036Z,1.00
2022-10-13T19:09:35.532Z,1.00
2022-10-13T19:12:38.091Z,1.02
2022-10-13T19:15:40.592Z,0.80
2022-10-13T19:18:43.726Z,0.82
2022-10-13T19:21:45.964Z,1.10
2022-10-13T19:24:48.660Z,1.00
2022-10-13T19:27:55.236Z,0.98
2022-10-13T19:30:58.704Z,0.98
2022-10-13T19:34:02.115Z,1.10
2022-10-13T19:37:05.557Z,1.00
2022-10-13T19:40:08.691Z,0.90
2022-10-13T19:43:11.307Z,1.00
2022-10-13T19:46:13.754Z,0.93
2022-10-13T19:49:19.366Z,0.95
2022-10-13T19:52:24.077Z,1.10
2022-10-13T19:55:27.041Z,1.00
2022-10-13T19:58:30.471Z,1.00
2022-10-13T20:01:40.783Z,0.80
2022-10-13T20:07:50.526Z,1.00
2022-10-13T20:10:52.447Z,1.00
2022-10-13T20:13:54.643Z,0.88
2022-10-13T20:16:58.971Z,0.80
2022-10-13T20:20:01.197Z,1.00
2022-10-13T20:23:03.556Z,0.80
2022-10-13T20:26:12.797Z,0.80
2022-10-13T20:29:15.850Z,0.88
2022-10-13T20:32:18.578Z,1.00
2022-10-13T20:35:21.586Z,1.00
2022-10-13T20:38:24.237Z,1.10
2022-10-13T20:41:31.327Z,0.90
2022-10-13T20:44:34.008Z,0.80
2022-10-13T20:47:36.163Z,0.95
2022-10-13T20:50:39.961Z,0.70
2022-10-13T20:56:48.407Z,0.98
2022-10-13T20:59:51.128Z,0.90
2022-10-13T21:02:55.329Z,0.88
2022-10-13T21:06:03.349Z,0.80
2022-10-13T21:09:07.938Z,0.65
2022-10-13T21:12:11.077Z,0.90
2022-10-13T21:15:13.669Z,1.15
2022-10-13T21:18:16.501Z,1.00
2022-10-13T21:21:22.104Z,1.23
2022-10-13T21:24:26.358Z,0.90
2022-10-13T21:27:29.155Z,0.90
2022-10-13T21:30:32.079Z,0.90
2022-10-13T21:33:35.828Z,0.90
2022-10-13T21:36:42.675Z,0.90
2022-10-13T21:39:47.898Z,0.88
2022-10-13T21:42:50.133Z,0.93
2022-10-13T21:45:52.695Z,0.93
2022-10-13T21:48:57.324Z,0.80
2022-10-13T21:51:59.955Z,0.90
2022-10-13T21:55:05.647Z,0.98
2022-10-13T21:58:07.959Z,0.90
2022-10-13T22:01:10.721Z,0.80
2022-10-13T22:04:14.527Z,1.02
2022-10-13T22:07:16.755Z,0.80
2022-10-13T22:10:19.828Z,1.05
2022-10-13T22:13:22.036Z,0.90
2022-10-13T22:16:31.093Z,0.90
2022-10-13T22:19:33.250Z,0.80
2022-10-13T22:22:37.397Z,0.80
2022-10-13T22:25:46.493Z,1.05
2022-10-13T22:28:51.592Z,0.70
2022-10-13T22:31:58.274Z,0.80
2022-10-13T22:35:00.754Z,0.90
2022-10-13T22:38:03.588Z,0.95
2022-10-13T22:41:07.592Z,0.90
2022-10-13T22:44:09.961Z,0.90
2022-10-13T22:47:12.390Z,0.93
2022-10-13T22:50:14.400Z,1.00
2022-10-13T22:53:16.887Z,0.90
2022-10-13T22:56:22.145Z,0.80
2022-10-13T22:59:26.885Z,0.90
2022-10-13T23:02:28.906Z,1.00
2022-10-13T23:05:32.230Z,0.70
2022-10-13T23:08:34.838Z,0.93
2022-10-13T23:11:37.347Z,1.02
2022-10-13T23:14:40.805Z,1.10
2022-10-13T23:17:43.275Z,0.93
2022-10-13T23:20:45.552Z,0.90
2022-10-13T23:24:00.099Z,0.95
2022-10-13T23:27:02.361Z,0.85
2022-10-13T23:30:06.444Z,0.80
2022-10-13T23:33:08.680Z,1.00
2022-10-13T23:36:19.004Z,0.90
2022-10-13T23:39:24.673Z,1.00
2022-10-13T23:42:27.129Z,0.82
2022-10-13T23:45:29.285Z,0.90
2022-10-13T23:48:31.486Z,0.80
2022-10-13T23:51:34.009Z,0.90
2022-10-13T23:54:36.470Z,0.80
2022-10-13T23:57:39.712Z,0.77
